Startpagina
METAR-TAF:

METAR-TAF

Vliegvelden :

Flughafen Linz

Linz, Oostenrijk

breedte: 48-14N, lengte: 014-11E, hoogte: 298 m

Actueel weer

Dit bericht is 32 minuten geleden gemaakt, om 01:20 UTC
Wind 6 kt uit het westzuidwesten
Temperatuur 6°C
Vochtigheid 100%
Druk 1016 hPa
Zicht: 7000 m
Weinig wolken op 800 ft
Gebroken wolken op 4200 ft

METAR: LOWL 200120Z 24006KT 7000 FEW008 BKN042 06/06 Q1016 NOSIG

Tijdstip: 03:52 (01:52 UTC)

Verwachting

Dit bericht is 2 uur en het 37 minuten geleden gemaakt, om 23:15 UTC
Verwachting geldig van 20 om 00 UTC tot 20 om 24 UTC
Wind 6 kt uit het westen
Zicht 10 km of meer
Gebroken wolken op 3000 ft
Tijdelijke
van 20 om 00 UTC tot 20 om 12 UTC
Zicht: 3000 m
Gebroken wolken op 1200 ft
regen

TAF: LOWL 192315Z 2000/2024 27006KT 9999 BKN030 TX12/2015Z TN05/2024Z TEMPO 2000/2012 3000 RA BKN012

Waarnemingen en weersverwachtingen van meer dan 4000 vliegvelden (METAR en TAF).

De beschikbare stations zijn de gele en rode punten op de kaart.

Ga met uw muis naar het station om de naam te zien.

Klik dan om waarnemingen en weersverwachtingen te zien.

kaart wijzigen: klik op de groene knoppen met een zwart kruis om in te zoomen, op de groene knop met een streepje om uit te zoomen of op de groene pijlen voor aangrenzende kaarten.


METAR-TAF: